sensor_id;sensor_type;location;lat;lon;timestamp;temperature;humidity
37702;DHT22;23548;51.196;6.838;2023-02-26T00:00:55;1.10;99.90
37702;DHT22;23548;51.196;6.838;2023-02-26T00:03:21;1.10;99.90
37702;DHT22;23548;51.196;6.838;2023-02-26T00:05:47;1.10;99.90
37702;DHT22;23548;51.196;6.838;2023-02-26T00:08:13;1.20;99.90
37702;DHT22;23548;51.196;6.838;2023-02-26T00:10:39;1.20;99.90
37702;DHT22;23548;51.196;6.838;2023-02-26T00:13:05;1.20;99.90
37702;DHT22;23548;51.196;6.838;2023-02-26T00:15:31;1.20;99.90
37702;DHT22;23548;51.196;6.838;2023-02-26T00:18:03;1.20;99.90
37702;DHT22;23548;51.196;6.838;2023-02-26T00:20:30;1.10;99.90
37702;DHT22;23548;51.196;6.838;2023-02-26T00:22:56;1.00;99.90
37702;DHT22;23548;51.196;6.838;2023-02-26T00:25:22;1.00;99.90
37702;DHT22;23548;51.196;6.838;2023-02-26T00:27:48;1.00;99.90
37702;DHT22;23548;51.196;6.838;2023-02-26T00:30:14;0.90;99.90
37702;DHT22;23548;51.196;6.838;2023-02-26T00:32:40;0.90;99.90
37702;DHT22;23548;51.196;6.838;2023-02-26T00:35:08;1.00;99.90
37702;DHT22;23548;51.196;6.838;2023-02-26T00:38:31;1.00;99.90
37702;DHT22;23548;51.196;6.838;2023-02-26T00:40:42;1.10;99.90
37702;DHT22;23548;51.196;6.838;2023-02-26T00:43:14;1.20;99.90
37702;DHT22;23548;51.196;6.838;2023-02-26T00:45:50;1.20;99.90
37702;DHT22;23548;51.196;6.838;2023-02-26T00:48:43;1.20;99.90
37702;DHT22;23548;51.196;6.838;2023-02-26T00:54:18;1.20;99.90
37702;DHT22;23548;51.196;6.838;2023-02-26T00:56:46;1.20;99.90
37702;DHT22;23548;51.196;6.838;2023-02-26T00:59:12;1.20;99.90
37702;DHT22;23548;51.196;6.838;2023-02-26T01:01:38;1.20;99.90
37702;DHT22;23548;51.196;6.838;2023-02-26T01:04:04;1.20;99.90
37702;DHT22;23548;51.196;6.838;2023-02-26T01:06:33;1.20;99.90
37702;DHT22;23548;51.196;6.838;2023-02-26T01:09:10;1.10;99.90
37702;DHT22;23548;51.196;6.838;2023-02-26T01:11:38;1.10;99.90
37702;DHT22;23548;51.196;6.838;2023-02-26T01:14:04;1.10;99.90
37702;DHT22;23548;51.196;6.838;2023-02-26T01:16:37;1.10;99.90
37702;DHT22;23548;51.196;6.838;2023-02-26T01:19:28;1.10;99.90
37702;DHT22;23548;51.196;6.838;2023-02-26T01:22:12;1.10;99.90
37702;DHT22;23548;51.196;6.838;2023-02-26T01:24:41;1.10;99.90
37702;DHT22;23548;51.196;6.838;2023-02-26T01:27:07;1.20;99.90
37702;DHT22;23548;51.196;6.838;2023-02-26T01:29:33;1.30;99.90
37702;DHT22;23548;51.196;6.838;2023-02-26T01:32:23;1.40;99.90
37702;DHT22;23548;51.196;6.838;2023-02-26T01:34:59;1.40;99.90
37702;DHT22;23548;51.196;6.838;2023-02-26T01:40:34;1.30;99.90
37702;DHT22;23548;51.196;6.838;2023-02-26T01:43:14;1.40;99.90
37702;DHT22;23548;51.196;6.838;2023-02-26T01:45:59;1.30;99.90
37702;DHT22;23548;51.196;6.838;2023-02-26T01:48:38;1.30;99.90
37702;DHT22;23548;51.196;6.838;2023-02-26T01:51:08;1.40;99.90
37702;DHT22;23548;51.196;6.838;2023-02-26T01:53:34;1.40;99.90
37702;DHT22;23548;51.196;6.838;2023-02-26T01:56:03;1.40;99.90
37702;DHT22;23548;51.196;6.838;2023-02-26T01:58:33;1.40;99.90
37702;DHT22;23548;51.196;6.838;2023-02-26T02:01:01;1.30;99.90
37702;DHT22;23548;51.196;6.838;2023-02-26T02:03:31;1.30;99.90
37702;DHT22;23548;51.196;6.838;2023-02-26T02:06:09;1.40;99.90
37702;DHT22;23548;51.196;6.838;2023-02-26T02:08:37;1.30;99.90
37702;DHT22;23548;51.196;6.838;2023-02-26T02:11:06;1.30;99.90
37702;DHT22;23548;51.196;6.838;2023-02-26T02:27:22;0.90;99.90
37702;DHT22;23548;51.196;6.838;2023-02-26T02:30:20;0.80;99.90
37702;DHT22;23548;51.196;6.838;2023-02-26T02:33:00;0.80;99.90
37702;DHT22;23548;51.196;6.838;2023-02-26T02:35:31;0.70;99.90
37702;DHT22;23548;51.196;6.838;2023-02-26T02:38:08;0.70;99.90
37702;DHT22;23548;51.196;6.838;2023-02-26T02:40:40;0.70;99.90
37702;DHT22;23548;51.196;6.838;2023-02-26T02:43:23;0.70;99.90
37702;DHT22;23548;51.196;6.838;2023-02-26T02:45:53;0.60;99.90
37702;DHT22;23548;51.196;6.838;2023-02-26T02:48:27;0.60;99.90
37702;DHT22;23548;51.196;6.838;2023-02-26T02:50:59;0.60;99.90
37702;DHT22;23548;51.196;6.838;2023-02-26T02:53:48;0.60;99.90
37702;DHT22;23548;51.196;6.838;2023-02-26T02:56:24;0.50;99.90
37702;DHT22;23548;51.196;6.838;2023-02-26T03:01:32;0.40;99.90
37702;DHT22;23548;51.196;6.838;2023-02-26T03:04:08;0.40;99.90
37702;DHT22;23548;51.196;6.838;2023-02-26T03:06:36;0.40;99.90
37702;DHT22;23548;51.196;6.838;2023-02-26T03:09:03;0.40;99.90
37702;DHT22;23548;51.196;6.838;2023-02-26T03:11:30;0.50;99.90
37702;DHT22;23548;51.196;6.838;2023-02-26T03:13:57;0.30;99.90
37702;DHT22;23548;51.196;6.838;2023-02-26T03:16:34;0.30;99.90
37702;DHT22;23548;51.196;6.838;2023-02-26T03:22:10;0.30;99.90
37702;DHT22;23548;51.196;6.838;2023-02-26T03:24:59;0.20;99.90
37702;DHT22;23548;51.196;6.838;2023-02-26T03:27:48;0.20;99.90
37702;DHT22;23548;51.196;6.838;2023-02-26T03:36:37;0.00;99.90
37702;DHT22;23548;51.196;6.838;2023-02-26T03:39:14;0.10;99.90
37702;DHT22;23548;51.196;6.838;2023-02-26T03:44:22;0.30;99.90
37702;DHT22;23548;51.196;6.838;2023-02-26T03:46:54;0.30;99.90
37702;DHT22;23548;51.196;6.838;2023-02-26T03:49:36;0.30;99.90
37702;DHT22;23548;51.196;6.838;2023-02-26T03:52:03;0.20;99.90
37702;DHT22;23548;51.196;6.838;2023-02-26T03:57:22;0.20;99.90
37702;DHT22;23548;51.196;6.838;2023-02-26T03:59:48;0.20;99.90
37702;DHT22;23548;51.196;6.838;2023-02-26T04:02:29;0.30;99.90
37702;DHT22;23548;51.196;6.838;2023-02-26T04:05:02;0.20;99.90
37702;DHT22;23548;51.196;6.838;2023-02-26T04:07:31;0.20;99.90
37702;DHT22;23548;51.196;6.838;2023-02-26T04:09:58;0.20;99.90
37702;DHT22;23548;51.196;6.838;2023-02-26T04:12:26;0.10;99.90
37702;DHT22;23548;51.196;6.838;2023-02-26T04:14:53;0.10;99.90
37702;DHT22;23548;51.196;6.838;2023-02-26T04:17:19;0.10;99.90
37702;DHT22;23548;51.196;6.838;2023-02-26T04:19:45;0.10;99.90
37702;DHT22;23548;51.196;6.838;2023-02-26T04:22:11;-0.90;99.90
37702;DHT22;23548;51.196;6.838;2023-02-26T04:24:37;0.10;99.90
37702;DHT22;23548;51.196;6.838;2023-02-26T04:27:03;0.10;99.90
37702;DHT22;23548;51.196;6.838;2023-02-26T04:29:29;0.10;99.90
37702;DHT22;23548;51.196;6.838;2023-02-26T04:31:55;-0.10;99.90
37702;DHT22;23548;51.196;6.838;2023-02-26T04:34:21;-0.10;99.90
37702;DHT22;23548;51.196;6.838;2023-02-26T04:36:47;-0.10;99.90
37702;DHT22;23548;51.196;6.838;2023-02-26T04:39:13;-0.10;99.90
37702;DHT22;23548;51.196;6.838;2023-02-26T04:41:39;-0.20;99.90
37702;DHT22;23548;51.196;6.838;2023-02-26T04:44:05;-0.20;99.90
37702;DHT22;23548;51.196;6.838;2023-02-26T04:46:32;-0.20;99.90
37702;DHT22;23548;51.196;6.838;2023-02-26T04:48:58;-0.30;99.90
37702;DHT22;23548;51.196;6.838;2023-02-26T04:51:24;-0.30;99.90
37702;DHT22;23548;51.196;6.838;2023-02-26T04:53:50;-0.30;99.90
37702;DHT22;23548;51.196;6.838;2023-02-26T04:56:16;-0.30;99.90
37702;DHT22;23548;51.196;6.838;2023-02-26T04:58:42;-0.20;99.90
37702;DHT22;23548;51.196;6.838;2023-02-26T05:01:08;-0.30;99.90
37702;DHT22;23548;51.196;6.838;2023-02-26T05:03:33;-0.30;99.90
37702;DHT22;23548;51.196;6.838;2023-02-26T05:05:59;-0.30;99.90
37702;DHT22;23548;51.196;6.838;2023-02-26T05:08:25;-0.30;99.90
37702;DHT22;23548;51.196;6.838;2023-02-26T05:10:51;-0.20;99.90
37702;DHT22;23548;51.196;6.838;2023-02-26T05:13:18;-0.30;99.90
37702;DHT22;23548;51.196;6.838;2023-02-26T05:15:44;-0.30;99.90
37702;DHT22;23548;51.196;6.838;2023-02-26T05:18:10;-0.30;99.90
37702;DHT22;23548;51.196;6.838;2023-02-26T05:20:36;-0.40;99.90
37702;DHT22;23548;51.196;6.838;2023-02-26T05:23:02;-0.40;99.90
37702;DHT22;23548;51.196;6.838;2023-02-26T05:25:28;-0.30;99.90
37702;DHT22;23548;51.196;6.838;2023-02-26T05:27:54;-0.30;99.90
37702;DHT22;23548;51.196;6.838;2023-02-26T05:30:20;-0.40;99.90
37702;DHT22;23548;51.196;6.838;2023-02-26T05:32:46;-0.40;99.90
37702;DHT22;23548;51.196;6.838;2023-02-26T05:35:12;-0.40;99.90
37702;DHT22;23548;51.196;6.838;2023-02-26T05:37:38;-0.40;99.90
37702;DHT22;23548;51.196;6.838;2023-02-26T05:40:06;-0.40;99.90
37702;DHT22;23548;51.196;6.838;2023-02-26T05:42:35;-0.40;99.90
37702;DHT22;23548;51.196;6.838;2023-02-26T05:45:01;-0.50;99.90
37702;DHT22;23548;51.196;6.838;2023-02-26T05:47:27;-0.60;99.90
37702;DHT22;23548;51.196;6.838;2023-02-26T05:49:53;-0.60;99.90
37702;DHT22;23548;51.196;6.838;2023-02-26T05:52:19;-0.60;99.90
37702;DHT22;23548;51.196;6.838;2023-02-26T05:54:45;-0.60;99.90
37702;DHT22;23548;51.196;6.838;2023-02-26T05:57:11;-0.60;99.90
37702;DHT22;23548;51.196;6.838;2023-02-26T05:59:36;-0.60;99.90
37702;DHT22;23548;51.196;6.838;2023-02-26T06:02:03;-0.60;99.90
37702;DHT22;23548;51.196;6.838;2023-02-26T06:04:29;-0.60;99.90
37702;DHT22;23548;51.196;6.838;2023-02-26T06:06:55;-0.50;99.90
37702;DHT22;23548;51.196;6.838;2023-02-26T06:09:20;-0.50;99.90
37702;DHT22;23548;51.196;6.838;2023-02-26T06:11:46;-0.50;99.90
37702;DHT22;23548;51.196;6.838;2023-02-26T06:14:12;-0.50;99.90
37702;DHT22;23548;51.196;6.838;2023-02-26T06:16:38;-0.50;99.90
37702;DHT22;23548;51.196;6.838;2023-02-26T06:19:04;-0.50;99.90
37702;DHT22;23548;51.196;6.838;2023-02-26T06:21:30;-0.50;99.90
37702;DHT22;23548;51.196;6.838;2023-02-26T06:23:56;-0.50;99.90
37702;DHT22;23548;51.196;6.838;2023-02-26T06:26:22;-0.50;99.90
37702;DHT22;23548;51.196;6.838;2023-02-26T06:28:48;-0.50;99.90
37702;DHT22;23548;51.196;6.838;2023-02-26T06:31:14;-0.50;99.90
37702;DHT22;23548;51.196;6.838;2023-02-26T06:33:40;-0.50;99.90
37702;DHT22;23548;51.196;6.838;2023-02-26T06:36:06;-0.50;99.90
37702;DHT22;23548;51.196;6.838;2023-02-26T06:38:32;-0.50;99.90
37702;DHT22;23548;51.196;6.838;2023-02-26T06:40:58;-0.40;99.90
37702;DHT22;23548;51.196;6.838;2023-02-26T06:43:24;-0.40;99.90
37702;DHT22;23548;51.196;6.838;2023-02-26T06:45:50;-0.40;99.90
37702;DHT22;23548;51.196;6.838;2023-02-26T06:48:16;-0.40;99.90
37702;DHT22;23548;51.196;6.838;2023-02-26T06:50:42;-0.40;99.90
37702;DHT22;23548;51.196;6.838;2023-02-26T06:53:08;-0.40;99.90
37702;DHT22;23548;51.196;6.838;2023-02-26T06:55:34;-0.30;99.90
37702;DHT22;23548;51.196;6.838;2023-02-26T06:58:00;-0.40;99.90
37702;DHT22;23548;51.196;6.838;2023-02-26T07:00:25;-0.30;99.90
37702;DHT22;23548;51.196;6.838;2023-02-26T07:02:52;-0.30;99.90
37702;DHT22;23548;51.196;6.838;2023-02-26T07:05:17;-0.30;99.90
37702;DHT22;23548;51.196;6.838;2023-02-26T07:07:43;-0.30;99.90
37702;DHT22;23548;51.196;6.838;2023-02-26T07:10:11;-0.30;99.90
37702;DHT22;23548;51.196;6.838;2023-02-26T07:12:37;-0.20;99.90
37702;DHT22;23548;51.196;6.838;2023-02-26T07:15:05;-0.20;99.90
37702;DHT22;23548;51.196;6.838;2023-02-26T07:17:31;-0.10;99.90
37702;DHT22;23548;51.196;6.838;2023-02-26T07:19:57;-0.10;99.90
37702;DHT22;23548;51.196;6.838;2023-02-26T07:22:23;0.00;99.90
37702;DHT22;23548;51.196;6.838;2023-02-26T07:24:49;0.00;99.90
37702;DHT22;23548;51.196;6.838;2023-02-26T07:27:15;0.10;99.90
37702;DHT22;23548;51.196;6.838;2023-02-26T07:29:41;0.10;99.90
37702;DHT22;23548;51.196;6.838;2023-02-26T07:32:07;0.10;99.90
37702;DHT22;23548;51.196;6.838;2023-02-26T07:34:33;0.20;99.90
37702;DHT22;23548;51.196;6.838;2023-02-26T07:36:59;0.20;99.90
37702;DHT22;23548;51.196;6.838;2023-02-26T07:39:25;0.20;99.90
37702;DHT22;23548;51.196;6.838;2023-02-26T07:41:51;0.20;99.90
37702;DHT22;23548;51.196;6.838;2023-02-26T07:44:18;0.20;99.90
37702;DHT22;23548;51.196;6.838;2023-02-26T07:46:44;0.30;99.90
37702;DHT22;23548;51.196;6.838;2023-02-26T07:49:09;0.40;99.90
37702;DHT22;23548;51.196;6.838;2023-02-26T07:51:35;0.40;99.90
37702;DHT22;23548;51.196;6.838;2023-02-26T07:54:02;0.40;99.90
37702;DHT22;23548;51.196;6.838;2023-02-26T07:56:28;0.40;99.90
37702;DHT22;23548;51.196;6.838;2023-02-26T07:58:54;0.50;99.90
37702;DHT22;23548;51.196;6.838;2023-02-26T08:01:20;0.60;99.90
37702;DHT22;23548;51.196;6.838;2023-02-26T08:03:46;0.60;99.90
37702;DHT22;23548;51.196;6.838;2023-02-26T08:06:12;0.50;99.90
37702;DHT22;23548;51.196;6.838;2023-02-26T08:08:39;0.50;99.90
37702;DHT22;23548;51.196;6.838;2023-02-26T08:11:04;0.60;99.90
37702;DHT22;23548;51.196;6.838;2023-02-26T08:13:30;0.60;99.90
37702;DHT22;23548;51.196;6.838;2023-02-26T08:15:56;0.70;99.90
37702;DHT22;23548;51.196;6.838;2023-02-26T08:18:22;0.70;99.90
37702;DHT22;23548;51.196;6.838;2023-02-26T08:20:50;0.70;99.90
37702;DHT22;23548;51.196;6.838;2023-02-26T08:23:17;0.80;99.90
37702;DHT22;23548;51.196;6.838;2023-02-26T08:25:43;0.90;99.90
37702;DHT22;23548;51.196;6.838;2023-02-26T08:28:10;1.50;99.90
37702;DHT22;23548;51.196;6.838;2023-02-26T08:30:36;1.60;99.90
37702;DHT22;23548;51.196;6.838;2023-02-26T08:33:02;1.40;99.90
37702;DHT22;23548;51.196;6.838;2023-02-26T08:35:28;1.40;99.90
37702;DHT22;23548;51.196;6.838;2023-02-26T08:37:54;1.30;99.90
37702;DHT22;23548;51.196;6.838;2023-02-26T08:40:20;1.40;99.90
37702;DHT22;23548;51.196;6.838;2023-02-26T08:42:46;1.40;99.90
37702;DHT22;23548;51.196;6.838;2023-02-26T08:45:11;1.50;99.90
37702;DHT22;23548;51.196;6.838;2023-02-26T08:47:37;1.60;99.90
37702;DHT22;23548;51.196;6.838;2023-02-26T08:50:06;1.60;99.90
37702;DHT22;23548;51.196;6.838;2023-02-26T08:52:32;1.60;99.90
37702;DHT22;23548;51.196;6.838;2023-02-26T08:54:58;1.60;99.90
37702;DHT22;23548;51.196;6.838;2023-02-26T08:57:24;1.80;99.90
37702;DHT22;23548;51.196;6.838;2023-02-26T08:59:50;1.80;99.90
37702;DHT22;23548;51.196;6.838;2023-02-26T09:02:15;1.80;99.90
37702;DHT22;23548;51.196;6.838;2023-02-26T09:04:42;1.80;99.90
37702;DHT22;23548;51.196;6.838;2023-02-26T09:07:07;2.00;99.90
37702;DHT22;23548;51.196;6.838;2023-02-26T09:09:33;1.90;99.90
37702;DHT22;23548;51.196;6.838;2023-02-26T09:11:59;1.90;99.90
37702;DHT22;23548;51.196;6.838;2023-02-26T09:14:25;2.10;99.90
37702;DHT22;23548;51.196;6.838;2023-02-26T09:16:51;2.20;99.90
37702;DHT22;23548;51.196;6.838;2023-02-26T09:19:17;2.30;99.90
37702;DHT22;23548;51.196;6.838;2023-02-26T09:21:42;2.40;99.90
37702;DHT22;23548;51.196;6.838;2023-02-26T09:24:09;2.40;99.90
37702;DHT22;23548;51.196;6.838;2023-02-26T09:26:35;2.30;99.90
37702;DHT22;23548;51.196;6.838;2023-02-26T09:29:03;2.30;99.90
37702;DHT22;23548;51.196;6.838;2023-02-26T09:31:29;2.10;99.90
37702;DHT22;23548;51.196;6.838;2023-02-26T09:33:54;2.20;99.90
37702;DHT22;23548;51.196;6.838;2023-02-26T09:36:21;2.20;99.90
37702;DHT22;23548;51.196;6.838;2023-02-26T09:38:46;2.40;99.90
37702;DHT22;23548;51.196;6.838;2023-02-26T09:41:23;2.30;99.90
37702;DHT22;23548;51.196;6.838;2023-02-26T09:44:00;2.60;99.90
37702;DHT22;23548;51.196;6.838;2023-02-26T09:49:21;2.70;99.90
37702;DHT22;23548;51.196;6.838;2023-02-26T09:51:58;2.60;99.90
37702;DHT22;23548;51.196;6.838;2023-02-26T09:54:29;2.80;99.90
37702;DHT22;23548;51.196;6.838;2023-02-26T09:56:58;2.60;99.90
37702;DHT22;23548;51.196;6.838;2023-02-26T09:59:32;2.80;99.90
37702;DHT22;23548;51.196;6.838;2023-02-26T10:02:16;3.10;99.90
37702;DHT22;23548;51.196;6.838;2023-02-26T10:04:50;3.10;99.90
37702;DHT22;23548;51.196;6.838;2023-02-26T10:07:43;3.20;99.90
37702;DHT22;23548;51.196;6.838;2023-02-26T10:10:28;3.20;99.90
37702;DHT22;23548;51.196;6.838;2023-02-26T10:12:57;3.20;99.90
37702;DHT22;23548;51.196;6.838;2023-02-26T10:15:34;3.40;99.90
37702;DHT22;23548;51.196;6.838;2023-02-26T10:18:21;3.70;99.90
37702;DHT22;23548;51.196;6.838;2023-02-26T10:23:45;3.70;99.90
37702;DHT22;23548;51.196;6.838;2023-02-26T10:26:17;3.80;99.90
37702;DHT22;23548;51.196;6.838;2023-02-26T10:29:11;3.90;99.90
37702;DHT22;23548;51.196;6.838;2023-02-26T10:32:11;3.90;99.90
37702;DHT22;23548;51.196;6.838;2023-02-26T10:34:46;3.70;99.90
37702;DHT22;23548;51.196;6.838;2023-02-26T10:37:17;3.60;99.90
37702;DHT22;23548;51.196;6.838;2023-02-26T10:42:31;3.80;99.90
37702;DHT22;23548;51.196;6.838;2023-02-26T10:50:34;3.90;99.90
37702;DHT22;23548;51.196;6.838;2023-02-26T10:53:01;4.10;99.90
37702;DHT22;23548;51.196;6.838;2023-02-26T10:55:47;4.20;99.90
37702;DHT22;23548;51.196;6.838;2023-02-26T10:58:21;3.80;99.90
37702;DHT22;23548;51.196;6.838;2023-02-26T11:00:50;4.00;99.90
37702;DHT22;23548;51.196;6.838;2023-02-26T11:05:46;3.70;99.90
37702;DHT22;23548;51.196;6.838;2023-02-26T11:08:26;4.00;99.90
37702;DHT22;23548;51.196;6.838;2023-02-26T11:10:57;4.50;99.90
37702;DHT22;23548;51.196;6.838;2023-02-26T11:13:28;4.90;99.00
37702;DHT22;23548;51.196;6.838;2023-02-26T11:15:59;4.80;98.30
37702;DHT22;23548;51.196;6.838;2023-02-26T11:18:38;4.60;97.80
37702;DHT22;23548;51.196;6.838;2023-02-26T11:21:05;4.50;98.00
37702;DHT22;23548;51.196;6.838;2023-02-26T11:23:32;4.50;98.80
37702;DHT22;23548;51.196;6.838;2023-02-26T11:26:04;4.70;97.80
37702;DHT22;23548;51.196;6.838;2023-02-26T11:28:35;4.40;95.90
37702;DHT22;23548;51.196;6.838;2023-02-26T11:31:06;4.20;95.80
37702;DHT22;23548;51.196;6.838;2023-02-26T11:33:44;4.20;96.20
37702;DHT22;23548;51.196;6.838;2023-02-26T11:36:16;4.40;96.00
37702;DHT22;23548;51.196;6.838;2023-02-26T11:38:45;4.20;94.90
37702;DHT22;23548;51.196;6.838;2023-02-26T11:41:13;4.20;96.40
37702;DHT22;23548;51.196;6.838;2023-02-26T11:43:41;4.00;96.50
37702;DHT22;23548;51.196;6.838;2023-02-26T11:46:09;4.20;94.80
37702;DHT22;23548;51.196;6.838;2023-02-26T11:48:48;4.30;94.40
37702;DHT22;23548;51.196;6.838;2023-02-26T11:51:20;4.70;93.70
37702;DHT22;23548;51.196;6.838;2023-02-26T11:53:51;4.50;93.30
37702;DHT22;23548;51.196;6.838;2023-02-26T11:56:25;4.30;93.70
37702;DHT22;23548;51.196;6.838;2023-02-26T11:58:53;4.20;93.80
37702;DHT22;23548;51.196;6.838;2023-02-26T12:01:20;4.40;93.60
37702;DHT22;23548;51.196;6.838;2023-02-26T12:03:48;4.40;93.70
37702;DHT22;23548;51.196;6.838;2023-02-26T12:06:21;4.70;93.60
37702;DHT22;23548;51.196;6.838;2023-02-26T12:08:49;4.80;93.40
37702;DHT22;23548;51.196;6.838;2023-02-26T12:14:34;4.80;92.80
37702;DHT22;23548;51.196;6.838;2023-02-26T12:45:20;4.60;91.10
37702;DHT22;23548;51.196;6.838;2023-02-26T12:48:18;4.60;91.80
37702;DHT22;23548;51.196;6.838;2023-02-26T12:51:01;4.90;92.30
37702;DHT22;23548;51.196;6.838;2023-02-26T13:07:02;4.80;91.80
37702;DHT22;23548;51.196;6.838;2023-02-26T13:10:40;4.70;91.00
37702;DHT22;23548;51.196;6.838;2023-02-26T13:15:54;4.70;90.80
37702;DHT22;23548;51.196;6.838;2023-02-26T13:20:56;4.60;89.90
37702;DHT22;23548;51.196;6.838;2023-02-26T13:23:32;4.70;89.80
37702;DHT22;23548;51.196;6.838;2023-02-26T13:26:03;4.60;89.80
37702;DHT22;23548;51.196;6.838;2023-02-26T13:31:55;4.60;88.70
37702;DHT22;23548;51.196;6.838;2023-02-26T13:34:06;4.60;88.20
37702;DHT22;23548;51.196;6.838;2023-02-26T13:36:36;4.70;88.40
37702;DHT22;23548;51.196;6.838;2023-02-26T13:39:13;4.50;88.30
37702;DHT22;23548;51.196;6.838;2023-02-26T13:42:03;4.60;90.00
37702;DHT22;23548;51.196;6.838;2023-02-26T13:47:27;4.70;88.60
37702;DHT22;23548;51.196;6.838;2023-02-26T13:50:21;4.80;89.20
37702;DHT22;23548;51.196;6.838;2023-02-26T13:55:53;4.80;89.00
37702;DHT22;23548;51.196;6.838;2023-02-26T14:06:52;4.90;88.30
37702;DHT22;23548;51.196;6.838;2023-02-26T14:12:17;5.00;87.50
37702;DHT22;23548;51.196;6.838;2023-02-26T14:22:41;5.00;87.50
37702;DHT22;23548;51.196;6.838;2023-02-26T14:27:38;6.50;86.10
37702;DHT22;23548;51.196;6.838;2023-02-26T14:30:27;7.60;82.90
37702;DHT22;23548;51.196;6.838;2023-02-26T14:35:44;8.60;78.30
37702;DHT22;23548;51.196;6.838;2023-02-26T14:38:17;8.60;76.40
37702;DHT22;23548;51.196;6.838;2023-02-26T14:41:00;8.20;75.80
37702;DHT22;23548;51.196;6.838;2023-02-26T14:43:45;9.60;74.50
37702;DHT22;23548;51.196;6.838;2023-02-26T14:46:16;9.40;73.70
37702;DHT22;23548;51.196;6.838;2023-02-26T14:48:42;9.50;71.70
37702;DHT22;23548;51.196;6.838;2023-02-26T14:54:03;9.30;69.50
37702;DHT22;23548;51.196;6.838;2023-02-26T15:00:02;8.40;68.70
37702;DHT22;23548;51.196;6.838;2023-02-26T15:11:26;9.80;66.60
37702;DHT22;23548;51.196;6.838;2023-02-26T15:19:42;10.80;66.20
37702;DHT22;23548;51.196;6.838;2023-02-26T15:24:56;11.10;62.40
37702;DHT22;23548;51.196;6.838;2023-02-26T15:27:22;10.20;64.20
37702;DHT22;23548;51.196;6.838;2023-02-26T15:29:49;9.40;66.10
37702;DHT22;23548;51.196;6.838;2023-02-26T15:32:28;9.10;65.90
37702;DHT22;23548;51.196;6.838;2023-02-26T15:35:14;8.40;66.70
37702;DHT22;23548;51.196;6.838;2023-02-26T15:37:40;7.40;67.80
37702;DHT22;23548;51.196;6.838;2023-02-26T15:40:07;6.40;71.10
37702;DHT22;23548;51.196;6.838;2023-02-26T15:42:38;5.60;73.40
37702;DHT22;23548;51.196;6.838;2023-02-26T15:45:17;5.30;75.60
37702;DHT22;23548;51.196;6.838;2023-02-26T15:47:57;5.00;76.70
37702;DHT22;23548;51.196;6.838;2023-02-26T15:50:30;4.90;78.60
37702;DHT22;23548;51.196;6.838;2023-02-26T15:52:59;4.90;78.60
37702;DHT22;23548;51.196;6.838;2023-02-26T15:55:27;4.90;79.30
37702;DHT22;23548;51.196;6.838;2023-02-26T15:57:55;4.90;79.30
37702;DHT22;23548;51.196;6.838;2023-02-26T16:00:22;4.90;79.90
37702;DHT22;23548;51.196;6.838;2023-02-26T16:02:54;4.90;80.00
37702;DHT22;23548;51.196;6.838;2023-02-26T16:05:22;4.80;79.80
37702;DHT22;23548;51.196;6.838;2023-02-26T16:07:49;4.80;81.50
37702;DHT22;23548;51.196;6.838;2023-02-26T16:10:25;4.70;81.70
37702;DHT22;23548;51.196;6.838;2023-02-26T16:12:52;4.60;79.70
37702;DHT22;23548;51.196;6.838;2023-02-26T16:15:32;4.60;80.20
37702;DHT22;23548;51.196;6.838;2023-02-26T16:18:01;4.50;81.50
37702;DHT22;23548;51.196;6.838;2023-02-26T16:20:39;4.50;80.90
37702;DHT22;23548;51.196;6.838;2023-02-26T16:23:18;4.40;81.70
37702;DHT22;23548;51.196;6.838;2023-02-26T16:30:48;4.30;83.00
37702;DHT22;23548;51.196;6.838;2023-02-26T16:33:17;4.30;83.50
37702;DHT22;23548;51.196;6.838;2023-02-26T16:36:02;4.20;83.90
37702;DHT22;23548;51.196;6.838;2023-02-26T16:38:47;4.20;84.10
37702;DHT22;23548;51.196;6.838;2023-02-26T16:41:14;4.20;84.60
37702;DHT22;23548;51.196;6.838;2023-02-26T16:46:23;4.00;86.00
37702;DHT22;23548;51.196;6.838;2023-02-26T16:49:07;4.00;86.30
37702;DHT22;23548;51.196;6.838;2023-02-26T16:51:36;3.90;86.70
37702;DHT22;23548;51.196;6.838;2023-02-26T16:56:41;3.80;87.90
37702;DHT22;23548;51.196;6.838;2023-02-26T16:59:17;3.80;88.00
37702;DHT22;23548;51.196;6.838;2023-02-26T17:05:00;3.60;89.30
37702;DHT22;23548;51.196;6.838;2023-02-26T17:07:30;3.60;90.00
37702;DHT22;23548;51.196;6.838;2023-02-26T17:09:58;3.40;90.10
37702;DHT22;23548;51.196;6.838;2023-02-26T17:12:45;3.40;90.70
37702;DHT22;23548;51.196;6.838;2023-02-26T17:15:17;3.30;90.60
37702;DHT22;23548;51.196;6.838;2023-02-26T17:17:43;3.30;91.10
37702;DHT22;23548;51.196;6.838;2023-02-26T17:20:10;3.20;91.00
37702;DHT22;23548;51.196;6.838;2023-02-26T17:22:36;3.00;91.40
37702;DHT22;23548;51.196;6.838;2023-02-26T17:25:02;2.90;91.70
37702;DHT22;23548;51.196;6.838;2023-02-26T17:27:35;2.90;91.80
37702;DHT22;23548;51.196;6.838;2023-02-26T17:30:03;2.80;92.00
37702;DHT22;23548;51.196;6.838;2023-02-26T17:32:30;2.80;92.20
37702;DHT22;23548;51.196;6.838;2023-02-26T17:34:57;2.70;92.30
37702;DHT22;23548;51.196;6.838;2023-02-26T17:37:27;2.70;92.30
37702;DHT22;23548;51.196;6.838;2023-02-26T17:39:54;2.80;92.30
37702;DHT22;23548;51.196;6.838;2023-02-26T17:42:22;2.80;92.60
37702;DHT22;23548;51.196;6.838;2023-02-26T17:44:48;2.80;92.30
37702;DHT22;23548;51.196;6.838;2023-02-26T17:47:23;2.80;92.60
37702;DHT22;23548;51.196;6.838;2023-02-26T17:49:52;2.70;92.60
37702;DHT22;23548;51.196;6.838;2023-02-26T17:52:19;2.60;93.00
37702;DHT22;23548;51.196;6.838;2023-02-26T17:54:45;2.60;92.90
37702;DHT22;23548;51.196;6.838;2023-02-26T17:57:18;2.60;93.10
37702;DHT22;23548;51.196;6.838;2023-02-26T17:59:53;2.60;92.90
37702;DHT22;23548;51.196;6.838;2023-02-26T18:02:23;2.60;93.30
37702;DHT22;23548;51.196;6.838;2023-02-26T18:04:52;2.50;93.20
37702;DHT22;23548;51.196;6.838;2023-02-26T18:07:25;2.40;93.60
37702;DHT22;23548;51.196;6.838;2023-02-26T18:09:52;2.30;93.80
37702;DHT22;23548;51.196;6.838;2023-02-26T18:12:20;2.10;94.20
37702;DHT22;23548;51.196;6.838;2023-02-26T18:14:47;2.00;94.30
37702;DHT22;23548;51.196;6.838;2023-02-26T18:17:22;2.00;94.50
37702;DHT22;23548;51.196;6.838;2023-02-26T18:19:48;1.90;94.70
37702;DHT22;23548;51.196;6.838;2023-02-26T18:22:15;1.90;95.00
37702;DHT22;23548;51.196;6.838;2023-02-26T18:24:42;1.90;95.00
37702;DHT22;23548;51.196;6.838;2023-02-26T18:27:26;2.00;95.00
37702;DHT22;23548;51.196;6.838;2023-02-26T18:29:53;2.00;95.00
37702;DHT22;23548;51.196;6.838;2023-02-26T18:32:22;2.00;95.10
37702;DHT22;23548;51.196;6.838;2023-02-26T18:34:48;2.00;95.20
37702;DHT22;23548;51.196;6.838;2023-02-26T18:37:24;2.00;95.40
37702;DHT22;23548;51.196;6.838;2023-02-26T18:39:50;1.90;95.40
37702;DHT22;23548;51.196;6.838;2023-02-26T18:42:20;1.90;95.40
37702;DHT22;23548;51.196;6.838;2023-02-26T18:44:47;1.90;95.50
37702;DHT22;23548;51.196;6.838;2023-02-26T18:47:13;1.90;95.40
37702;DHT22;23548;51.196;6.838;2023-02-26T18:49:39;1.90;95.40
37702;DHT22;23548;51.196;6.838;2023-02-26T18:52:04;1.90;95.60
37702;DHT22;23548;51.196;6.838;2023-02-26T18:54:30;1.90;95.30
37702;DHT22;23548;51.196;6.838;2023-02-26T18:56:56;1.90;95.30